Biggsville, Illinois
Current Conditions -  °F | °C
As of 9:53 PM on Wednesday 22 Oct 2014 (Local Time) from KBRL Reporting Station
Clear Clear  
Wind Chill: 10°   Ceiling: Unl
Heat Index: 10°   Visibility: 10mi
Dew Point:   Wind: 8mph
Humidity: 68%   Direction: 140°SE
Pressure: 30.21"   Gusts: NA
Location:  40.85°N, 90.86°W
Report Text: KBRL 230253Z AUTO 14007KT 10SM CLR 10/04 A3021 RMK AO2 SLP233 T01000044 50004
Loading
Personal Weather Stations






























Interactive Weather Map
Tropical Storm Tracking
New forecast layout! Learn more

10-Day Weather Forecast

Advertisements
Track Severe Weather on mobile